createdAt,value
2023-04-21T00:00:13.211Z,8.75
2023-04-21T00:01:35.299Z,8.73
2023-04-21T00:02:38.839Z,8.73
2023-04-21T00:03:41.508Z,8.72
2023-04-21T00:04:44.989Z,8.72
2023-04-21T00:05:47.800Z,8.73
2023-04-21T00:06:49.970Z,8.73
2023-04-21T00:07:51.927Z,8.73
2023-04-21T00:08:53.426Z,8.73
2023-04-21T00:09:55.006Z,8.73
2023-04-21T00:10:56.463Z,8.72
2023-04-21T00:11:58.600Z,8.72
2023-04-21T00:13:00.136Z,8.72
2023-04-21T00:14:01.788Z,8.72
2023-04-21T00:15:04.337Z,8.72
2023-04-21T00:16:06.496Z,8.73
2023-04-21T00:17:07.915Z,8.74
2023-04-21T00:18:09.593Z,8.73
2023-04-21T00:19:13.345Z,8.74
2023-04-21T00:20:15.627Z,8.74
2023-04-21T00:21:17.866Z,8.75
2023-04-21T00:22:20.703Z,8.73
2023-04-21T00:23:22.335Z,8.73
2023-04-21T00:24:25.115Z,8.73
2023-04-21T00:25:26.695Z,8.73
2023-04-21T00:26:28.164Z,8.72
2023-04-21T00:27:30.062Z,8.70
2023-04-21T00:28:31.664Z,8.69
2023-04-21T00:29:33.680Z,8.68
2023-04-21T00:30:35.189Z,8.67
2023-04-21T00:31:36.701Z,8.67
2023-04-21T00:32:40.075Z,8.68
2023-04-21T00:33:41.697Z,8.67
2023-04-21T00:34:43.238Z,8.67
2023-04-21T00:35:47.041Z,8.67
2023-04-21T00:36:48.516Z,8.66
2023-04-21T00:37:49.981Z,8.66
2023-04-21T00:38:51.435Z,8.66
2023-04-21T00:39:53.065Z,8.65
2023-04-21T00:40:54.821Z,8.65
2023-04-21T00:41:56.834Z,8.64
2023-04-21T00:42:58.449Z,8.64
2023-04-21T00:44:07.795Z,8.64
2023-04-21T00:45:09.625Z,8.62
2023-04-21T00:46:11.176Z,8.60
2023-04-21T00:47:13.701Z,8.59
2023-04-21T00:48:15.536Z,8.58
2023-04-21T00:49:17.443Z,8.58
2023-04-21T00:50:19.136Z,8.57
2023-04-21T00:51:20.996Z,8.58
2023-04-21T00:52:22.751Z,8.59
2023-04-21T00:53:24.510Z,8.60
2023-04-21T00:54:26.632Z,8.60
2023-04-21T00:55:30.557Z,8.58
2023-04-21T00:56:33.849Z,8.59
2023-04-21T00:57:37.237Z,8.60
2023-04-21T00:58:42.133Z,8.59
2023-04-21T00:59:43.741Z,8.58
2023-04-21T01:00:45.293Z,8.58
2023-04-21T01:01:46.813Z,8.58
2023-04-21T01:02:49.778Z,8.59
2023-04-21T01:03:52.188Z,8.60
2023-04-21T01:04:53.841Z,8.60
2023-04-21T01:05:56.206Z,8.60
2023-04-21T01:06:58.108Z,8.61
2023-04-21T01:08:01.169Z,8.61
2023-04-21T01:09:04.131Z,8.62
2023-04-21T01:10:06.483Z,8.61
2023-04-21T01:11:11.912Z,8.61
2023-04-21T01:12:14.794Z,8.59
2023-04-21T01:13:19.297Z,8.57
2023-04-21T01:14:20.843Z,8.57
2023-04-21T01:15:22.636Z,8.57
2023-04-21T01:16:24.463Z,8.57
2023-04-21T01:17:29.591Z,8.58
2023-04-21T01:18:31.085Z,8.58
2023-04-21T01:19:36.425Z,8.58
2023-04-21T01:20:38.368Z,8.57
2023-04-21T01:21:41.081Z,8.55
2023-04-21T01:22:44.263Z,8.53
2023-04-21T01:23:45.866Z,8.53
2023-04-21T01:24:48.548Z,8.54
2023-04-21T01:25:51.257Z,8.53
2023-04-21T01:26:52.694Z,8.52
2023-04-21T01:27:54.178Z,8.51
2023-04-21T01:28:56.835Z,8.49
2023-04-21T01:29:58.258Z,8.48
2023-04-21T01:31:20.337Z,8.47
2023-04-21T01:32:27.383Z,8.47
2023-04-21T01:33:29.354Z,8.47
2023-04-21T01:34:32.734Z,8.46
2023-04-21T01:35:34.172Z,8.47
2023-04-21T01:36:36.345Z,8.46
2023-04-21T01:37:38.137Z,8.45
2023-04-21T01:38:41.264Z,8.44
2023-04-21T01:39:45.968Z,8.43
2023-04-21T01:40:50.377Z,8.44
2023-04-21T01:41:52.548Z,8.44
2023-04-21T01:42:55.915Z,8.42
2023-04-21T01:43:57.507Z,8.40
2023-04-21T01:44:59.647Z,8.38
2023-04-21T01:46:01.191Z,8.38
2023-04-21T01:47:03.377Z,8.38
2023-04-21T01:48:05.228Z,8.39
2023-04-21T01:49:07.496Z,8.41
2023-04-21T01:50:09.501Z,8.41
2023-04-21T01:51:11.135Z,8.42
2023-04-21T01:52:12.909Z,8.40
2023-04-21T01:53:14.488Z,8.39
2023-04-21T01:54:16.211Z,8.38
2023-04-21T01:55:17.785Z,8.37
2023-04-21T01:56:19.690Z,8.36
2023-04-21T01:57:21.622Z,8.34
2023-04-21T01:58:24.910Z,8.34
2023-04-21T01:59:26.542Z,8.34
2023-04-21T02:00:27.991Z,8.33
2023-04-21T02:01:29.698Z,8.33
2023-04-21T02:02:31.443Z,8.32
2023-04-21T02:03:33.327Z,8.33
2023-04-21T02:04:35.520Z,8.33
2023-04-21T02:05:37.243Z,8.33
2023-04-21T02:06:38.729Z,8.33
2023-04-21T02:07:41.568Z,8.33
2023-04-21T02:08:43.067Z,8.34
2023-04-21T02:09:44.643Z,8.34
2023-04-21T02:10:46.090Z,8.34
2023-04-21T02:11:47.703Z,8.35
2023-04-21T02:12:49.400Z,8.34
2023-04-21T02:13:52.966Z,8.35
2023-04-21T02:14:54.558Z,8.35
2023-04-21T02:16:06.166Z,8.36
2023-04-21T02:17:14.407Z,8.37
2023-04-21T02:18:16.160Z,8.37
2023-04-21T02:19:19.201Z,8.36
2023-04-21T02:20:20.870Z,8.37
2023-04-21T02:21:23.679Z,8.36
2023-04-21T02:22:25.313Z,8.36
2023-04-21T02:23:26.728Z,8.37
2023-04-21T02:24:29.450Z,8.37
2023-04-21T02:25:31.095Z,8.37
2023-04-21T02:26:32.648Z,8.37
2023-04-21T02:27:35.039Z,8.36
2023-04-21T02:28:36.578Z,8.36
2023-04-21T02:29:38.131Z,8.36
2023-04-21T02:30:42.658Z,8.36
2023-04-21T02:31:57.725Z,8.35
2023-04-21T02:33:00.953Z,8.35
2023-04-21T02:34:02.674Z,8.35
2023-04-21T02:35:04.894Z,8.35
2023-04-21T02:36:06.753Z,8.34
2023-04-21T02:37:08.860Z,8.34
2023-04-21T02:38:10.632Z,8.33
2023-04-21T02:39:12.396Z,8.32
2023-04-21T02:40:14.125Z,8.32
2023-04-21T02:41:15.624Z,8.31
2023-04-21T02:42:17.131Z,8.32
2023-04-21T02:43:18.736Z,8.32
2023-04-21T02:44:20.218Z,8.32
2023-04-21T02:45:21.876Z,8.32
2023-04-21T02:46:23.579Z,8.31
2023-04-21T02:47:25.536Z,8.31
2023-04-21T02:48:27.815Z,8.31
2023-04-21T02:49:29.833Z,8.30
2023-04-21T02:50:32.078Z,8.29
2023-04-21T02:51:33.769Z,8.30
2023-04-21T02:52:37.354Z,8.29
2023-04-21T02:53:42.239Z,8.29
2023-04-21T02:54:43.670Z,8.28
2023-04-21T02:55:45.322Z,8.28
2023-04-21T02:56:46.716Z,8.27
2023-04-21T02:57:48.316Z,8.26
2023-04-21T02:58:49.796Z,8.25
2023-04-21T02:59:51.333Z,8.25
2023-04-21T03:00:52.847Z,8.23
2023-04-21T03:01:54.363Z,8.24
2023-04-21T03:02:56.064Z,8.24
2023-04-21T03:03:57.735Z,8.24
2023-04-21T03:04:59.344Z,8.23
2023-04-21T03:06:03.098Z,8.23
2023-04-21T03:07:04.602Z,8.22
2023-04-21T03:08:06.861Z,8.21
2023-04-21T03:09:09.964Z,8.22
2023-04-21T03:10:11.393Z,8.22
2023-04-21T03:11:12.936Z,8.23
2023-04-21T03:12:14.353Z,8.23
2023-04-21T03:13:16.456Z,8.24
2023-04-21T03:14:18.459Z,8.25
2023-04-21T03:15:20.364Z,8.24
2023-04-21T03:16:22.399Z,8.22
2023-04-21T03:17:24.511Z,8.21
2023-04-21T03:18:27.095Z,8.20
2023-04-21T03:19:29.154Z,8.20
2023-04-21T03:20:30.785Z,8.19
2023-04-21T03:21:32.774Z,8.19
2023-04-21T03:22:38.130Z,8.19
2023-04-21T03:23:39.930Z,8.19
2023-04-21T03:24:41.594Z,8.18
2023-04-21T03:25:43.263Z,8.17
2023-04-21T03:26:44.695Z,8.15
2023-04-21T03:27:46.209Z,8.14
2023-04-21T03:28:47.914Z,8.13
2023-04-21T03:29:49.410Z,8.12
2023-04-21T03:30:51.099Z,8.12
2023-04-21T03:31:52.708Z,8.12
2023-04-21T03:32:55.168Z,8.11
2023-04-21T03:33:56.689Z,8.10
2023-04-21T03:34:58.255Z,8.09
2023-04-21T03:35:59.666Z,8.07
2023-04-21T03:37:04.551Z,8.06
2023-04-21T03:38:06.689Z,8.04
2023-04-21T03:39:19.073Z,8.04
2023-04-21T03:40:22.423Z,8.04
2023-04-21T03:41:24.174Z,8.03
2023-04-21T03:42:25.954Z,8.03
2023-04-21T03:43:27.476Z,8.04
2023-04-21T03:44:28.974Z,8.03
2023-04-21T03:45:30.482Z,8.04
2023-04-21T03:46:34.018Z,8.03
2023-04-21T03:47:36.602Z,8.03
2023-04-21T03:48:38.055Z,8.04
2023-04-21T03:49:39.455Z,8.02
2023-04-21T03:50:41.046Z,8.00
2023-04-21T03:51:42.419Z,7.99
2023-04-21T03:52:44.055Z,7.97
2023-04-21T03:53:45.432Z,7.96
2023-04-21T03:54:46.917Z,7.95
2023-04-21T03:55:51.396Z,7.96
2023-04-21T03:56:52.953Z,7.95
2023-04-21T03:57:54.614Z,7.96
2023-04-21T03:58:56.312Z,7.96
2023-04-21T03:59:57.788Z,7.96
2023-04-21T04:00:59.323Z,7.97
2023-04-21T04:02:00.832Z,7.98
2023-04-21T04:03:02.565Z,7.99
2023-04-21T04:04:04.708Z,7.99
2023-04-21T04:05:07.011Z,8.00
2023-04-21T04:06:08.684Z,8.00
2023-04-21T04:07:10.435Z,7.99
2023-04-21T04:08:11.990Z,7.99
2023-04-21T04:09:13.463Z,7.99
2023-04-21T04:10:14.979Z,7.99
2023-04-21T04:11:16.479Z,8.01
2023-04-21T04:12:18.088Z,8.04
2023-04-21T04:13:21.829Z,8.05
2023-04-21T04:14:23.515Z,8.06
2023-04-21T04:15:25.195Z,8.05
2023-04-21T04:16:28.157Z,8.05
2023-04-21T04:17:29.694Z,8.07
2023-04-21T04:18:31.331Z,8.08
2023-04-21T04:19:34.084Z,8.11
2023-04-21T04:20:35.962Z,8.13
2023-04-21T04:21:37.832Z,8.14
2023-04-21T04:22:39.240Z,8.14
2023-04-21T04:23:40.763Z,8.15
2023-04-21T04:24:44.420Z,8.15
2023-04-21T04:25:47.215Z,8.16
2023-04-21T04:26:48.950Z,8.16
2023-04-21T04:27:50.409Z,8.17
2023-04-21T04:28:52.811Z,8.18
2023-04-21T04:29:54.419Z,8.19
2023-04-21T04:30:55.990Z,8.20
2023-04-21T04:31:57.944Z,8.22
2023-04-21T04:32:59.534Z,8.23
2023-04-21T04:34:01.218Z,8.24
2023-04-21T04:35:03.369Z,8.25
2023-04-21T04:36:05.112Z,8.27
2023-04-21T04:37:06.868Z,8.29
2023-04-21T04:38:09.211Z,8.29
2023-04-21T04:39:11.636Z,8.32
2023-04-21T04:40:13.595Z,8.35
2023-04-21T04:41:18.977Z,8.38
2023-04-21T04:42:20.643Z,8.40
2023-04-21T04:43:23.567Z,8.42
2023-04-21T04:44:25.342Z,8.44
2023-04-21T04:45:27.966Z,8.46
2023-04-21T04:46:29.460Z,8.48
2023-04-21T04:47:30.980Z,8.50
2023-04-21T04:48:32.641Z,8.51
2023-04-21T04:49:34.202Z,8.54
2023-04-21T04:50:35.901Z,8.57
2023-04-21T04:51:37.289Z,8.59
2023-04-21T04:52:38.717Z,8.61
2023-04-21T04:53:40.139Z,8.63
2023-04-21T04:54:41.602Z,8.64
2023-04-21T04:55:43.005Z,8.67
2023-04-21T04:56:44.467Z,8.69
2023-04-21T04:57:46.191Z,8.71
2023-04-21T04:58:47.710Z,8.72
2023-04-21T04:59:54.167Z,8.74
2023-04-21T05:00:55.616Z,8.76
2023-04-21T05:01:57.191Z,8.78
2023-04-21T05:02:58.770Z,8.81
2023-04-21T05:04:00.553Z,8.86
2023-04-21T05:05:02.357Z,8.90
2023-04-21T05:06:04.353Z,8.92
2023-04-21T05:07:07.087Z,8.94
2023-04-21T05:08:08.715Z,8.96
2023-04-21T05:09:10.225Z,8.96
2023-04-21T05:10:11.694Z,8.98
2023-04-21T05:11:13.201Z,9.00
2023-04-21T05:12:14.682Z,9.02
2023-04-21T05:13:16.756Z,9.03
2023-04-21T05:14:18.460Z,9.06
2023-04-21T05:15:21.860Z,9.09
2023-04-21T05:16:23.532Z,9.11
2023-04-21T05:17:25.502Z,9.12
2023-04-21T05:18:27.288Z,9.14
2023-04-21T05:19:28.685Z,9.15
2023-04-21T05:20:30.303Z,9.18
2023-04-21T05:21:32.748Z,9.21
2023-04-21T05:22:38.171Z,9.26
2023-04-21T05:23:39.993Z,9.29
2023-04-21T05:24:42.294Z,9.32
2023-04-21T05:25:44.100Z,9.36
2023-04-21T05:26:47.400Z,9.39
2023-04-21T05:27:49.408Z,9.40
2023-04-21T05:28:51.178Z,9.40
2023-04-21T05:29:53.956Z,9.43
2023-04-21T05:30:55.629Z,9.44
2023-04-21T05:31:57.286Z,9.46
2023-04-21T05:32:59.864Z,9.50
2023-04-21T05:34:01.938Z,9.54
2023-04-21T05:35:03.764Z,9.57
2023-04-21T05:36:09.477Z,9.59
2023-04-21T05:37:11.796Z,9.59
2023-04-21T05:38:13.437Z,9.60
2023-04-21T05:39:17.043Z,9.64
2023-04-21T05:40:18.626Z,9.70
2023-04-21T05:41:21.831Z,9.76
2023-04-21T05:42:23.586Z,9.79
2023-04-21T05:43:25.195Z,9.81
2023-04-21T05:44:26.734Z,9.83
2023-04-21T05:45:28.188Z,9.86
2023-04-21T05:46:29.805Z,9.86
2023-04-21T05:47:31.362Z,9.84
2023-04-21T05:48:33.081Z,9.82
2023-04-21T05:49:34.834Z,9.82
2023-04-21T05:50:36.286Z,9.81
2023-04-21T05:51:37.798Z,9.79
2023-04-21T05:52:39.462Z,9.80
2023-04-21T05:53:43.215Z,9.81
2023-04-21T05:54:44.823Z,9.79
2023-04-21T05:55:46.302Z,9.78
2023-04-21T05:56:47.993Z,9.79
2023-04-21T05:57:49.693Z,9.78
2023-04-21T05:58:51.074Z,9.78
2023-04-21T05:59:52.483Z,9.78
2023-04-21T06:00:54.080Z,9.80
2023-04-21T06:01:55.521Z,9.84
2023-04-21T06:02:57.250Z,9.85
2023-04-21T06:03:59.203Z,9.84
2023-04-21T06:05:01.187Z,9.82
2023-04-21T06:06:05.068Z,9.79
2023-04-21T06:07:07.488Z,9.76
2023-04-21T06:08:08.936Z,9.75
2023-04-21T06:09:10.700Z,9.76
2023-04-21T06:10:13.664Z,9.78
2023-04-21T06:11:15.104Z,9.78
2023-04-21T06:12:16.481Z,9.79
2023-04-21T06:13:18.147Z,9.79
2023-04-21T06:14:19.874Z,9.81
2023-04-21T06:15:21.626Z,9.80
2023-04-21T06:16:23.311Z,9.76
2023-04-21T06:17:24.963Z,9.75
2023-04-21T06:18:26.899Z,9.75
2023-04-21T06:19:28.298Z,9.76
2023-04-21T06:20:29.904Z,9.79
2023-04-21T06:21:32.125Z,9.81
2023-04-21T06:22:33.555Z,9.82
2023-04-21T06:23:35.220Z,9.81
2023-04-21T06:24:36.660Z,9.82
2023-04-21T06:25:38.438Z,9.81
2023-04-21T06:26:40.078Z,9.83
2023-04-21T06:27:41.764Z,9.85
2023-04-21T06:28:43.202Z,9.85
2023-04-21T06:29:44.928Z,9.86
2023-04-21T06:30:46.426Z,9.86
2023-04-21T06:31:48.046Z,9.88
2023-04-21T06:32:49.948Z,9.90
2023-04-21T06:33:51.506Z,9.89
2023-04-21T06:34:52.907Z,9.86
2023-04-21T06:35:55.003Z,9.86
2023-04-21T06:36:56.446Z,9.86
2023-04-21T06:37:58.031Z,9.86
2023-04-21T06:38:59.565Z,9.86
2023-04-21T06:40:01.021Z,9.88
2023-04-21T06:41:03.885Z,9.89
2023-04-21T06:42:05.418Z,9.90
2023-04-21T06:43:13.306Z,9.91
2023-04-21T06:44:15.063Z,9.91
2023-04-21T06:45:16.421Z,9.90
2023-04-21T06:46:18.091Z,9.90
2023-04-21T06:47:19.818Z,9.89
2023-04-21T06:48:21.530Z,9.84
2023-04-21T06:49:23.060Z,9.79
2023-04-21T06:50:24.552Z,9.75
2023-04-21T06:51:26.224Z,9.75
2023-04-21T06:52:27.704Z,9.77
2023-04-21T06:53:29.286Z,9.75
2023-04-21T06:54:30.767Z,9.74
2023-04-21T06:55:32.357Z,9.75
2023-04-21T06:56:34.044Z,9.73
2023-04-21T06:57:35.512Z,9.73
2023-04-21T06:58:37.035Z,9.74
2023-04-21T06:59:38.595Z,9.79
2023-04-21T07:00:40.011Z,9.82
2023-04-21T07:01:41.553Z,9.83
2023-04-21T07:02:43.055Z,9.86
2023-04-21T07:03:45.079Z,9.90
2023-04-21T07:04:46.727Z,9.94
2023-04-21T07:05:48.241Z,9.97
2023-04-21T07:06:49.685Z,9.99
2023-04-21T07:07:51.241Z,10.03
2023-04-21T07:08:52.721Z,10.06
2023-04-21T07:09:54.346Z,10.12
2023-04-21T07:10:55.839Z,10.15
2023-04-21T07:11:57.868Z,10.18
2023-04-21T07:12:59.409Z,10.21
2023-04-21T07:14:01.860Z,10.24
2023-04-21T07:15:03.935Z,10.25
2023-04-21T07:16:05.837Z,10.24
2023-04-21T07:17:07.366Z,10.24
2023-04-21T07:18:08.994Z,10.23
2023-04-21T07:19:10.704Z,10.22
2023-04-21T07:20:12.636Z,10.19
2023-04-21T07:21:14.250Z,10.16
2023-04-21T07:22:15.862Z,10.14
2023-04-21T07:23:17.729Z,10.16
2023-04-21T07:24:19.244Z,10.16
2023-04-21T07:25:20.647Z,10.15
2023-04-21T07:26:22.157Z,10.12
2023-04-21T07:27:23.807Z,10.10
2023-04-21T07:28:25.883Z,10.09
2023-04-21T07:29:27.828Z,10.13
2023-04-21T07:30:29.815Z,10.15
2023-04-21T07:31:31.335Z,10.17
2023-04-21T07:32:33.129Z,10.14
2023-04-21T07:33:34.722Z,10.11
2023-04-21T07:34:36.280Z,10.07
2023-04-21T07:35:37.775Z,10.06
2023-04-21T07:36:39.254Z,10.05
2023-04-21T07:37:40.877Z,10.04
2023-04-21T07:38:43.033Z,10.05
2023-04-21T07:39:45.112Z,10.04
2023-04-21T07:40:46.752Z,10.02
2023-04-21T07:41:48.462Z,10.02
2023-04-21T07:42:49.992Z,10.05
2023-04-21T07:43:53.589Z,10.09
2023-04-21T07:44:56.966Z,10.13
2023-04-21T07:45:58.966Z,10.14
2023-04-21T07:47:00.450Z,10.17
2023-04-21T07:48:01.947Z,10.17
2023-04-21T07:49:04.020Z,10.17
2023-04-21T07:50:06.719Z,10.15
2023-04-21T07:51:08.205Z,10.14
2023-04-21T07:52:09.641Z,10.14
2023-04-21T07:53:11.157Z,10.14
2023-04-21T07:54:12.571Z,10.16
2023-04-21T07:55:14.581Z,10.18
2023-04-21T07:56:16.080Z,10.20
2023-04-21T07:57:17.614Z,10.21
2023-04-21T07:58:19.872Z,10.21
2023-04-21T07:59:21.339Z,10.22
2023-04-21T08:00:22.918Z,10.23
2023-04-21T08:01:24.451Z,10.22
2023-04-21T08:02:26.091Z,10.22
2023-04-21T08:03:27.788Z,10.26
2023-04-21T08:04:29.458Z,10.28
2023-04-21T08:05:34.795Z,10.29
2023-04-21T08:06:38.382Z,10.30
2023-04-21T08:07:40.331Z,10.32
2023-04-21T08:08:41.824Z,10.32
2023-04-21T08:09:43.460Z,10.30
2023-04-21T08:10:45.700Z,10.27
2023-04-21T08:11:47.248Z,10.25
2023-04-21T08:12:48.737Z,10.25
2023-04-21T08:13:50.910Z,10.26
2023-04-21T08:14:52.502Z,10.26
2023-04-21T08:15:54.614Z,10.29
2023-04-21T08:16:57.217Z,10.32
2023-04-21T08:17:59.244Z,10.36
2023-04-21T08:19:00.893Z,10.39
2023-04-21T08:20:03.141Z,10.41
2023-04-21T08:21:04.805Z,10.42
2023-04-21T08:22:06.540Z,10.47
2023-04-21T08:23:08.234Z,10.48
2023-04-21T08:24:09.870Z,10.47
2023-04-21T08:25:11.448Z,10.45
2023-04-21T08:26:13.151Z,10.43
2023-04-21T08:27:14.914Z,10.42
2023-04-21T08:28:16.432Z,10.42
2023-04-21T08:29:18.034Z,10.45
2023-04-21T08:30:19.606Z,10.48
2023-04-21T08:31:21.302Z,10.53
2023-04-21T08:32:23.805Z,10.56
2023-04-21T08:33:25.404Z,10.56
2023-04-21T08:34:27.775Z,10.55
2023-04-21T08:35:29.625Z,10.55
2023-04-21T08:36:31.283Z,10.56
2023-04-21T08:37:35.850Z,10.59
2023-04-21T08:38:38.073Z,10.65
2023-04-21T08:39:39.632Z,10.68
2023-04-21T08:40:41.840Z,10.71
2023-04-21T08:41:43.505Z,10.74
2023-04-21T08:42:45.239Z,10.75
2023-04-21T08:43:46.597Z,10.73
2023-04-21T08:44:48.147Z,10.70
2023-04-21T08:45:50.598Z,10.71
2023-04-21T08:46:54.983Z,10.70
2023-04-21T08:47:58.766Z,10.66
2023-04-21T08:49:00.711Z,10.64
2023-04-21T08:50:02.277Z,10.63
2023-04-21T08:51:06.973Z,10.64
2023-04-21T08:52:08.467Z,10.67
2023-04-21T08:53:10.703Z,10.75
2023-04-21T08:54:12.192Z,10.82
2023-04-21T08:55:15.090Z,10.86
2023-04-21T08:56:16.821Z,10.85
2023-04-21T08:57:18.862Z,10.84
2023-04-21T08:58:22.099Z,10.83
2023-04-21T08:59:23.504Z,10.79
2023-04-21T09:00:25.057Z,10.76
2023-04-21T09:01:26.618Z,10.75
2023-04-21T09:02:29.000Z,10.71
2023-04-21T09:03:30.783Z,10.72
2023-04-21T09:04:32.566Z,10.78
2023-04-21T09:05:39.626Z,10.83
2023-04-21T09:06:45.417Z,10.81
2023-04-21T09:07:47.015Z,10.76
2023-04-21T09:08:55.331Z,10.70
2023-04-21T09:09:57.533Z,10.65
2023-04-21T09:11:00.630Z,10.63
2023-04-21T09:12:02.132Z,10.61
2023-04-21T09:13:08.076Z,10.59
2023-04-21T09:14:10.663Z,10.59
2023-04-21T09:15:12.106Z,10.61
2023-04-21T09:16:20.393Z,10.66
2023-04-21T09:17:27.986Z,10.68
2023-04-21T09:18:36.164Z,10.66
2023-04-21T09:19:37.681Z,10.66
2023-04-21T09:20:39.838Z,10.67
2023-04-21T09:21:43.248Z,10.68
2023-04-21T09:22:45.101Z,10.67
2023-04-21T09:23:48.857Z,10.65
2023-04-21T09:24:57.997Z,10.66
2023-04-21T09:26:02.538Z,10.66
2023-04-21T09:27:04.208Z,10.65
2023-04-21T09:28:08.526Z,10.63
2023-04-21T09:29:10.118Z,10.61
2023-04-21T09:30:11.851Z,10.59
2023-04-21T09:31:21.404Z,10.58
2023-04-21T09:32:22.974Z,10.58
2023-04-21T09:33:32.371Z,10.58
2023-04-21T09:34:42.316Z,10.57
2023-04-21T09:35:43.778Z,10.56
2023-04-21T09:36:45.977Z,10.56
2023-04-21T09:37:47.939Z,10.56
2023-04-21T09:39:17.380Z,10.56
2023-04-21T09:40:18.602Z,10.54
2023-04-21T09:41:21.001Z,10.53
2023-04-21T09:42:29.039Z,10.55
2023-04-21T09:43:30.512Z,10.57
2023-04-21T09:44:36.444Z,10.57
2023-04-21T09:45:45.635Z,10.58
2023-04-21T09:46:51.759Z,10.60
2023-04-21T09:47:58.588Z,10.65
2023-04-21T09:49:01.778Z,10.65
2023-04-21T09:50:12.525Z,10.64
2023-04-21T09:51:25.600Z,10.65
2023-04-21T09:52:38.951Z,10.63
2023-04-21T09:53:41.902Z,10.63
2023-04-21T09:54:50.106Z,10.64
2023-04-21T09:55:53.433Z,10.66
2023-04-21T09:56:58.938Z,10.68
2023-04-21T09:58:01.989Z,10.67
2023-04-21T09:59:06.993Z,10.67
2023-04-21T10:00:11.127Z,10.68
2023-04-21T10:01:14.139Z,10.68
2023-04-21T10:02:18.966Z,10.66
2023-04-21T10:03:25.940Z,10.65
2023-04-21T10:04:31.020Z,10.65
2023-04-21T10:05:33.428Z,10.66
2023-04-21T10:06:35.796Z,10.68
2023-04-21T10:07:37.410Z,10.72
2023-04-21T10:08:39.890Z,10.75
2023-04-21T10:09:46.778Z,10.78
2023-04-21T10:10:48.964Z,10.87
2023-04-21T10:11:52.414Z,10.99
2023-04-21T10:12:54.500Z,11.10
2023-04-21T10:13:56.158Z,11.20
2023-04-21T10:14:57.665Z,11.27
2023-04-21T10:16:09.633Z,11.30
2023-04-21T10:17:11.381Z,11.28
2023-04-21T10:18:14.721Z,11.27
2023-04-21T10:19:26.454Z,11.29
2023-04-21T10:20:28.760Z,11.29
2023-04-21T10:21:35.892Z,11.27
2023-04-21T10:22:39.001Z,11.28
2023-04-21T10:23:43.138Z,11.26
2023-04-21T10:24:45.524Z,11.23
2023-04-21T10:25:48.929Z,11.23
2023-04-21T10:26:52.474Z,11.26
2023-04-21T10:27:55.894Z,11.31
2023-04-21T10:29:05.664Z,11.38
2023-04-21T10:30:21.776Z,11.42
2023-04-21T10:31:34.278Z,11.46
2023-04-21T10:32:40.719Z,11.45
2023-04-21T10:33:42.227Z,11.47
2023-04-21T10:34:44.380Z,11.53
2023-04-21T10:36:04.085Z,11.55
2023-04-21T10:37:05.683Z,11.52
2023-04-21T10:38:08.148Z,11.51
2023-04-21T10:39:14.968Z,11.52
2023-04-21T10:40:44.097Z,11.54
2023-04-21T10:41:46.125Z,11.59
2023-04-21T10:42:48.497Z,11.63
2023-04-21T10:43:50.469Z,11.71
2023-04-21T10:44:56.054Z,11.76
2023-04-21T10:45:57.552Z,11.78
2023-04-21T10:46:59.178Z,11.80
2023-04-21T10:48:03.108Z,11.85
2023-04-21T10:49:08.908Z,11.91
2023-04-21T10:50:30.919Z,11.96
2023-04-21T10:51:32.410Z,11.99
2023-04-21T10:52:33.913Z,12.00
2023-04-21T10:53:43.433Z,12.03
2023-04-21T10:54:49.361Z,12.10
2023-04-21T10:55:52.649Z,12.18
2023-04-21T10:56:56.144Z,12.26
2023-04-21T10:58:02.056Z,12.32
2023-04-21T10:59:03.638Z,12.37
2023-04-21T11:00:06.556Z,12.42
2023-04-21T11:01:08.178Z,12.52
2023-04-21T11:02:14.493Z,12.62
2023-04-21T11:03:16.353Z,12.68
2023-04-21T11:04:20.144Z,12.72
2023-04-21T11:05:37.948Z,12.71
2023-04-21T11:06:39.545Z,12.75
2023-04-21T11:07:41.112Z,12.80
2023-04-21T11:08:55.751Z,12.87
2023-04-21T11:10:01.644Z,12.93
2023-04-21T11:11:03.365Z,12.92
2023-04-21T11:12:06.934Z,12.90
2023-04-21T11:13:08.415Z,12.89
2023-04-21T11:14:09.850Z,12.94
2023-04-21T11:15:13.771Z,12.99
2023-04-21T11:16:15.254Z,13.01
2023-04-21T11:17:19.028Z,13.00
2023-04-21T11:18:20.715Z,13.02
2023-04-21T11:19:24.481Z,13.04
2023-04-21T11:20:26.540Z,13.05
2023-04-21T11:21:29.247Z,13.12
2023-04-21T11:22:30.806Z,13.21
2023-04-21T11:23:32.294Z,13.32
2023-04-21T11:24:33.964Z,13.44
2023-04-21T11:25:35.764Z,13.55
2023-04-21T11:26:37.792Z,13.65
2023-04-21T11:27:39.280Z,13.76
2023-04-21T11:28:43.975Z,13.89
2023-04-21T11:29:46.108Z,13.98
2023-04-21T11:30:47.958Z,14.09
2023-04-21T11:31:50.116Z,14.20
2023-04-21T11:32:55.318Z,14.32
2023-04-21T11:33:58.961Z,14.46
2023-04-21T11:35:00.401Z,14.59
2023-04-21T11:36:08.082Z,14.63
2023-04-21T11:37:14.730Z,14.65
2023-04-21T11:38:18.043Z,14.70
2023-04-21T11:39:21.777Z,14.80
2023-04-21T11:40:23.885Z,14.90
2023-04-21T11:41:25.528Z,14.99
2023-04-21T11:42:27.614Z,14.97
2023-04-21T11:43:29.032Z,14.95
2023-04-21T11:44:30.470Z,14.89
2023-04-21T11:45:34.119Z,14.86
2023-04-21T11:46:36.786Z,14.86
2023-04-21T11:47:39.315Z,14.89
2023-04-21T11:48:42.498Z,14.91
2023-04-21T11:49:55.730Z,14.92
2023-04-21T11:50:57.163Z,14.94
2023-04-21T11:51:58.812Z,14.97
2023-04-21T11:53:02.102Z,15.06
2023-04-21T11:54:12.088Z,15.12
2023-04-21T11:55:18.006Z,15.11
2023-04-21T11:56:22.800Z,15.12
2023-04-21T11:57:25.821Z,15.15
2023-04-21T11:58:27.350Z,15.20
2023-04-21T11:59:28.992Z,15.21
2023-04-21T12:00:31.929Z,15.22
2023-04-21T12:01:33.474Z,15.25
2023-04-21T12:02:35.110Z,15.35
2023-04-21T12:03:37.032Z,15.51
2023-04-21T12:04:39.318Z,15.67
2023-04-21T12:05:41.020Z,15.79
2023-04-21T12:06:43.913Z,15.82
2023-04-21T12:07:47.331Z,15.82
2023-04-21T12:08:54.967Z,15.92
2023-04-21T12:09:56.615Z,16.06
2023-04-21T12:11:01.460Z,16.16
2023-04-21T12:12:04.778Z,16.26
2023-04-21T12:13:06.215Z,16.31
2023-04-21T12:14:08.107Z,16.38
2023-04-21T12:15:12.149Z,16.52
2023-04-21T12:16:13.829Z,16.73
2023-04-21T12:17:15.432Z,16.90
2023-04-21T12:18:16.935Z,17.09
2023-04-21T12:19:34.681Z,17.31
2023-04-21T12:20:36.209Z,17.67
2023-04-21T12:21:40.676Z,17.87
2023-04-21T12:22:42.124Z,17.94
2023-04-21T12:23:44.139Z,17.95
2023-04-21T12:24:45.974Z,18.12
2023-04-21T12:25:47.566Z,18.31
2023-04-21T12:26:49.170Z,18.33
2023-04-21T12:27:53.392Z,18.25
2023-04-21T12:28:54.918Z,18.19
2023-04-21T12:29:56.415Z,18.03
2023-04-21T12:30:57.811Z,17.87
2023-04-21T12:31:59.530Z,17.72
2023-04-21T12:33:01.252Z,17.62
2023-04-21T12:34:03.018Z,17.63
2023-04-21T12:35:04.921Z,17.57
2023-04-21T12:36:07.046Z,17.46
2023-04-21T12:37:08.977Z,17.37
2023-04-21T12:38:10.814Z,17.35
2023-04-21T12:39:12.912Z,17.38
2023-04-21T12:40:14.340Z,17.42
2023-04-21T12:41:15.810Z,17.45
2023-04-21T12:42:17.389Z,17.57
2023-04-21T12:43:18.880Z,17.71
2023-04-21T12:44:20.755Z,17.71
2023-04-21T12:45:22.324Z,17.75
2023-04-21T12:46:23.811Z,17.85
2023-04-21T12:47:25.706Z,17.96
2023-04-21T12:48:27.332Z,18.01
2023-04-21T12:49:29.149Z,18.02
2023-04-21T12:50:30.745Z,18.09
2023-04-21T12:51:33.038Z,18.06
2023-04-21T12:52:34.651Z,18.05
2023-04-21T12:53:36.433Z,18.06
2023-04-21T12:54:37.891Z,18.04
2023-04-21T12:55:41.234Z,18.04
2023-04-21T12:56:44.508Z,18.01
2023-04-21T12:57:46.123Z,18.00
2023-04-21T12:58:47.662Z,17.92
2023-04-21T12:59:49.273Z,17.92
2023-04-21T13:00:50.908Z,18.06
2023-04-21T13:01:52.709Z,18.24
2023-04-21T13:02:54.729Z,18.39
2023-04-21T13:03:56.468Z,18.42
2023-04-21T13:04:58.131Z,18.44
2023-04-21T13:05:59.967Z,18.47
2023-04-21T13:07:01.685Z,18.54
2023-04-21T13:08:03.475Z,18.61
2023-04-21T13:09:05.691Z,18.65
2023-04-21T13:10:07.827Z,18.76
2023-04-21T13:11:09.951Z,18.90
2023-04-21T13:12:11.557Z,18.92
2023-04-21T13:13:13.252Z,18.94
2023-04-21T13:14:15.304Z,18.97
2023-04-21T13:15:16.852Z,18.90
2023-04-21T13:16:18.330Z,18.77
2023-04-21T13:17:20.008Z,18.68
2023-04-21T13:18:21.803Z,18.59
2023-04-21T13:19:23.820Z,18.44
2023-04-21T13:20:25.540Z,18.30
2023-04-21T13:21:27.302Z,18.08
2023-04-21T13:22:28.895Z,17.90
2023-04-21T13:23:30.461Z,17.76
2023-04-21T13:24:32.621Z,17.72
2023-04-21T13:25:34.172Z,17.73
2023-04-21T13:26:35.685Z,17.77
2023-04-21T13:27:39.238Z,17.86
2023-04-21T13:28:40.956Z,18.04
2023-04-21T13:29:42.586Z,18.25
2023-04-21T13:30:44.445Z,18.48
2023-04-21T13:31:45.979Z,18.64
2023-04-21T13:32:49.297Z,18.82
2023-04-21T13:33:53.035Z,18.93
2023-04-21T13:34:55.431Z,19.02
2023-04-21T13:35:56.919Z,19.09
2023-04-21T13:36:58.713Z,19.21
2023-04-21T13:38:00.192Z,19.39
2023-04-21T13:39:03.088Z,19.61
2023-04-21T13:40:07.448Z,19.99
2023-04-21T13:41:09.240Z,20.22